sensor_id;sensor_type;location;lat;lon;timestamp;P1;durP1;ratioP1;P2;durP2;ratioP2
75209;SDS011;63796;53.136;14.882;2024-02-21T00:02:47;22.30;;;4.00;;
75209;SDS011;63796;53.136;14.882;2024-02-21T00:05:54;22.90;;;2.70;;
75209;SDS011;63796;53.136;14.882;2024-02-21T00:09:03;22.40;;;4.50;;
75209;SDS011;63796;53.136;14.882;2024-02-21T00:12:11;16.80;;;3.60;;
75209;SDS011;63796;53.136;14.882;2024-02-21T00:15:18;13.80;;;2.70;;
75209;SDS011;63796;53.136;14.882;2024-02-21T00:18:25;16.10;;;2.60;;
75209;SDS011;63796;53.136;14.882;2024-02-21T00:21:32;19.30;;;3.40;;
75209;SDS011;63796;53.136;14.882;2024-02-21T00:24:39;15.20;;;2.70;;
75209;SDS011;63796;53.136;14.882;2024-02-21T00:27:47;19.40;;;2.90;;
75209;SDS011;63796;53.136;14.882;2024-02-21T00:30:54;19.40;;;3.20;;
75209;SDS011;63796;53.136;14.882;2024-02-21T00:34:03;20.30;;;3.80;;
75209;SDS011;63796;53.136;14.882;2024-02-21T00:37:10;16.50;;;3.50;;
75209;SDS011;63796;53.136;14.882;2024-02-21T00:39:38;19.10;;;4.30;;
75209;SDS011;63796;53.136;14.882;2024-02-21T00:42:46;19.60;;;4.10;;
75209;SDS011;63796;53.136;14.882;2024-02-21T00:45:56;20.10;;;4.10;;
75209;SDS011;63796;53.136;14.882;2024-02-21T00:49:03;22.00;;;3.10;;
75209;SDS011;63796;53.136;14.882;2024-02-21T00:52:10;15.40;;;2.60;;
75209;SDS011;63796;53.136;14.882;2024-02-21T00:55:17;19.10;;;3.10;;
75209;SDS011;63796;53.136;14.882;2024-02-21T00:58:26;25.30;;;4.00;;
75209;SDS011;63796;53.136;14.882;2024-02-21T01:01:34;13.70;;;2.60;;
75209;SDS011;63796;53.136;14.882;2024-02-21T01:04:44;12.90;;;2.60;;
75209;SDS011;63796;53.136;14.882;2024-02-21T01:07:51;21.10;;;3.50;;
75209;SDS011;63796;53.136;14.882;2024-02-21T01:10:59;16.30;;;2.80;;
75209;SDS011;63796;53.136;14.882;2024-02-21T01:13:34;15.50;;;3.70;;
75209;SDS011;63796;53.136;14.882;2024-02-21T01:16:42;14.50;;;3.10;;
75209;SDS011;63796;53.136;14.882;2024-02-21T01:19:49;22.60;;;4.60;;
75209;SDS011;63796;53.136;14.882;2024-02-21T01:22:57;20.60;;;5.00;;
75209;SDS011;63796;53.136;14.882;2024-02-21T01:26:04;27.50;;;4.70;;
75209;SDS011;63796;53.136;14.882;2024-02-21T01:29:12;21.10;;;4.30;;
75209;SDS011;63796;53.136;14.882;2024-02-21T01:32:19;22.90;;;4.20;;
75209;SDS011;63796;53.136;14.882;2024-02-21T01:35:26;14.00;;;5.70;;
75209;SDS011;63796;53.136;14.882;2024-02-21T01:38:34;21.60;;;3.70;;
75209;SDS011;63796;53.136;14.882;2024-02-21T01:41:42;19.90;;;5.00;;
75209;SDS011;63796;53.136;14.882;2024-02-21T01:44:49;17.00;;;3.90;;
75209;SDS011;63796;53.136;14.882;2024-02-21T01:47:57;17.70;;;4.40;;
75209;SDS011;63796;53.136;14.882;2024-02-21T01:51:05;19.90;;;3.90;;
75209;SDS011;63796;53.136;14.882;2024-02-21T01:54:14;21.80;;;4.10;;
75209;SDS011;63796;53.136;14.882;2024-02-21T01:57:22;15.70;;;4.50;;
75209;SDS011;63796;53.136;14.882;2024-02-21T02:00:30;21.10;;;4.40;;
75209;SDS011;63796;53.136;14.882;2024-02-21T02:03:38;18.50;;;5.00;;
75209;SDS011;63796;53.136;14.882;2024-02-21T02:06:47;23.60;;;4.30;;
75209;SDS011;63796;53.136;14.882;2024-02-21T02:09:54;21.00;;;4.50;;
75209;SDS011;63796;53.136;14.882;2024-02-21T02:13:02;17.00;;;5.30;;
75209;SDS011;63796;53.136;14.882;2024-02-21T02:16:09;20.80;;;4.10;;
75209;SDS011;63796;53.136;14.882;2024-02-21T02:19:17;20.80;;;4.80;;
75209;SDS011;63796;53.136;14.882;2024-02-21T02:22:31;11.60;;;4.10;;
75209;SDS011;63796;53.136;14.882;2024-02-21T02:25:41;23.90;;;5.80;;
75209;SDS011;63796;53.136;14.882;2024-02-21T02:28:51;17.30;;;4.80;;
75209;SDS011;63796;53.136;14.882;2024-02-21T02:31:58;18.10;;;4.30;;
75209;SDS011;63796;53.136;14.882;2024-02-21T02:35:08;27.30;;;6.00;;
75209;SDS011;63796;53.136;14.882;2024-02-21T02:38:15;19.00;;;5.30;;
75209;SDS011;63796;53.136;14.882;2024-02-21T02:41:22;23.50;;;5.10;;
75209;SDS011;63796;53.136;14.882;2024-02-21T02:44:30;18.70;;;5.50;;
75209;SDS011;63796;53.136;14.882;2024-02-21T02:47:39;23.70;;;5.40;;
75209;SDS011;63796;53.136;14.882;2024-02-21T02:50:47;16.50;;;4.80;;
75209;SDS011;63796;53.136;14.882;2024-02-21T02:53:54;16.20;;;4.00;;
75209;SDS011;63796;53.136;14.882;2024-02-21T02:57:02;22.40;;;5.30;;
75209;SDS011;63796;53.136;14.882;2024-02-21T03:00:14;20.10;;;4.80;;
75209;SDS011;63796;53.136;14.882;2024-02-21T03:03:21;18.20;;;4.70;;
75209;SDS011;63796;53.136;14.882;2024-02-21T03:06:29;24.30;;;5.10;;
75209;SDS011;63796;53.136;14.882;2024-02-21T03:09:38;22.20;;;4.80;;
75209;SDS011;63796;53.136;14.882;2024-02-21T03:12:46;22.40;;;5.40;;
75209;SDS011;63796;53.136;14.882;2024-02-21T03:15:54;14.70;;;4.80;;
75209;SDS011;63796;53.136;14.882;2024-02-21T03:19:01;18.70;;;4.60;;
75209;SDS011;63796;53.136;14.882;2024-02-21T03:22:09;12.40;;;4.00;;
75209;SDS011;63796;53.136;14.882;2024-02-21T03:25:16;17.70;;;4.70;;
75209;SDS011;63796;53.136;14.882;2024-02-21T03:28:26;19.40;;;4.40;;
75209;SDS011;63796;53.136;14.882;2024-02-21T03:31:35;17.10;;;3.70;;
75209;SDS011;63796;53.136;14.882;2024-02-21T03:34:43;22.90;;;4.70;;
75209;SDS011;63796;53.136;14.882;2024-02-21T03:37:50;19.00;;;5.20;;
75209;SDS011;63796;53.136;14.882;2024-02-21T03:40:57;18.50;;;4.70;;
75209;SDS011;63796;53.136;14.882;2024-02-21T03:44:09;13.50;;;3.80;;
75209;SDS011;63796;53.136;14.882;2024-02-21T03:46:39;11.00;;;4.20;;
75209;SDS011;63796;53.136;14.882;2024-02-21T03:49:46;19.10;;;4.80;;
75209;SDS011;63796;53.136;14.882;2024-02-21T03:52:54;17.60;;;4.50;;
75209;SDS011;63796;53.136;14.882;2024-02-21T03:56:02;21.40;;;4.60;;
75209;SDS011;63796;53.136;14.882;2024-02-21T03:59:10;22.30;;;5.00;;
75209;SDS011;63796;53.136;14.882;2024-02-21T04:02:17;15.40;;;4.10;;
75209;SDS011;63796;53.136;14.882;2024-02-21T04:05:25;21.20;;;4.50;;
75209;SDS011;63796;53.136;14.882;2024-02-21T04:08:32;22.40;;;4.70;;
75209;SDS011;63796;53.136;14.882;2024-02-21T04:11:39;19.60;;;6.00;;
75209;SDS011;63796;53.136;14.882;2024-02-21T04:14:47;15.30;;;4.40;;
75209;SDS011;63796;53.136;14.882;2024-02-21T04:17:54;16.60;;;4.40;;
75209;SDS011;63796;53.136;14.882;2024-02-21T04:21:02;15.40;;;5.00;;
75209;SDS011;63796;53.136;14.882;2024-02-21T04:24:09;16.70;;;5.00;;
75209;SDS011;63796;53.136;14.882;2024-02-21T04:27:16;13.40;;;4.00;;
75209;SDS011;63796;53.136;14.882;2024-02-21T04:30:24;21.90;;;4.50;;
75209;SDS011;63796;53.136;14.882;2024-02-21T04:33:32;23.60;;;4.00;;
75209;SDS011;63796;53.136;14.882;2024-02-21T04:36:39;16.90;;;4.40;;
75209;SDS011;63796;53.136;14.882;2024-02-21T04:39:48;16.10;;;4.20;;
75209;SDS011;63796;53.136;14.882;2024-02-21T04:42:56;15.30;;;4.70;;
75209;SDS011;63796;53.136;14.882;2024-02-21T04:46:04;15.00;;;4.40;;
75209;SDS011;63796;53.136;14.882;2024-02-21T04:49:13;18.60;;;5.70;;
75209;SDS011;63796;53.136;14.882;2024-02-21T04:52:21;27.90;;;5.20;;
75209;SDS011;63796;53.136;14.882;2024-02-21T04:55:29;21.40;;;4.60;;
75209;SDS011;63796;53.136;14.882;2024-02-21T04:58:39;22.40;;;4.70;;
75209;SDS011;63796;53.136;14.882;2024-02-21T05:01:47;18.70;;;4.10;;
75209;SDS011;63796;53.136;14.882;2024-02-21T05:05:00;20.90;;;5.30;;
75209;SDS011;63796;53.136;14.882;2024-02-21T05:08:09;16.20;;;4.70;;
75209;SDS011;63796;53.136;14.882;2024-02-21T05:11:17;18.00;;;4.50;;
75209;SDS011;63796;53.136;14.882;2024-02-21T05:14:25;21.20;;;5.50;;
75209;SDS011;63796;53.136;14.882;2024-02-21T05:17:32;16.30;;;4.00;;
75209;SDS011;63796;53.136;14.882;2024-02-21T05:20:40;10.50;;;3.80;;
75209;SDS011;63796;53.136;14.882;2024-02-21T05:23:47;15.60;;;4.40;;
75209;SDS011;63796;53.136;14.882;2024-02-21T05:26:55;15.70;;;3.70;;
75209;SDS011;63796;53.136;14.882;2024-02-21T05:30:03;17.70;;;3.50;;
75209;SDS011;63796;53.136;14.882;2024-02-21T05:33:13;12.30;;;3.50;;
75209;SDS011;63796;53.136;14.882;2024-02-21T05:36:20;11.00;;;3.60;;
75209;SDS011;63796;53.136;14.882;2024-02-21T05:39:28;7.50;;;3.60;;
75209;SDS011;63796;53.136;14.882;2024-02-21T05:42:35;16.90;;;4.60;;
75209;SDS011;63796;53.136;14.882;2024-02-21T05:45:43;11.40;;;3.70;;
75209;SDS011;63796;53.136;14.882;2024-02-21T05:48:50;14.50;;;4.60;;
75209;SDS011;63796;53.136;14.882;2024-02-21T05:51:58;16.90;;;4.50;;
75209;SDS011;63796;53.136;14.882;2024-02-21T05:55:07;22.80;;;6.20;;
75209;SDS011;63796;53.136;14.882;2024-02-21T05:58:14;13.50;;;4.60;;
75209;SDS011;63796;53.136;14.882;2024-02-21T06:01:22;12.90;;;4.60;;
75209;SDS011;63796;53.136;14.882;2024-02-21T06:04:29;18.50;;;5.50;;
75209;SDS011;63796;53.136;14.882;2024-02-21T06:07:36;17.10;;;5.80;;
75209;SDS011;63796;53.136;14.882;2024-02-21T06:10:44;16.50;;;5.00;;
75209;SDS011;63796;53.136;14.882;2024-02-21T06:13:51;15.40;;;6.40;;
75209;SDS011;63796;53.136;14.882;2024-02-21T06:16:58;20.10;;;7.40;;
75209;SDS011;63796;53.136;14.882;2024-02-21T06:20:06;15.70;;;5.80;;
75209;SDS011;63796;53.136;14.882;2024-02-21T06:22:34;12.20;;;5.90;;
75209;SDS011;63796;53.136;14.882;2024-02-21T06:25:42;22.20;;;6.20;;
75209;SDS011;63796;53.136;14.882;2024-02-21T06:28:50;14.00;;;5.30;;
75209;SDS011;63796;53.136;14.882;2024-02-21T06:31:57;20.00;;;5.10;;
75209;SDS011;63796;53.136;14.882;2024-02-21T06:35:05;13.90;;;5.50;;
75209;SDS011;63796;53.136;14.882;2024-02-21T06:38:12;15.00;;;7.10;;
75209;SDS011;63796;53.136;14.882;2024-02-21T06:41:20;19.10;;;6.70;;
75209;SDS011;63796;53.136;14.882;2024-02-21T06:44:27;13.10;;;5.80;;
75209;SDS011;63796;53.136;14.882;2024-02-21T06:47:35;18.40;;;6.60;;
75209;SDS011;63796;53.136;14.882;2024-02-21T06:50:42;15.90;;;6.40;;
75209;SDS011;63796;53.136;14.882;2024-02-21T06:53:52;17.40;;;7.90;;
75209;SDS011;63796;53.136;14.882;2024-02-21T06:56:59;20.40;;;8.00;;
75209;SDS011;63796;53.136;14.882;2024-02-21T07:00:07;23.10;;;8.20;;
75209;SDS011;63796;53.136;14.882;2024-02-21T07:03:15;16.20;;;7.10;;
75209;SDS011;63796;53.136;14.882;2024-02-21T07:06:22;23.30;;;8.70;;
75209;SDS011;63796;53.136;14.882;2024-02-21T07:09:30;25.80;;;8.70;;
75209;SDS011;63796;53.136;14.882;2024-02-21T07:12:38;23.10;;;8.40;;
75209;SDS011;63796;53.136;14.882;2024-02-21T07:15:45;24.50;;;8.80;;
75209;SDS011;63796;53.136;14.882;2024-02-21T07:18:53;20.10;;;8.90;;
75209;SDS011;63796;53.136;14.882;2024-02-21T07:22:00;21.60;;;8.20;;
75209;SDS011;63796;53.136;14.882;2024-02-21T07:25:10;20.90;;;7.90;;
75209;SDS011;63796;53.136;14.882;2024-02-21T07:28:19;18.60;;;8.40;;
75209;SDS011;63796;53.136;14.882;2024-02-21T07:31:27;21.30;;;8.20;;
75209;SDS011;63796;53.136;14.882;2024-02-21T07:34:34;22.80;;;8.60;;
75209;SDS011;63796;53.136;14.882;2024-02-21T07:37:42;20.80;;;7.60;;
75209;SDS011;63796;53.136;14.882;2024-02-21T07:40:52;26.30;;;9.60;;
75209;SDS011;63796;53.136;14.882;2024-02-21T07:44:00;20.70;;;9.30;;
75209;SDS011;63796;53.136;14.882;2024-02-21T07:47:07;23.00;;;9.50;;
75209;SDS011;63796;53.136;14.882;2024-02-21T07:50:14;27.60;;;12.10;;
75209;SDS011;63796;53.136;14.882;2024-02-21T07:53:23;25.10;;;10.70;;
75209;SDS011;63796;53.136;14.882;2024-02-21T07:56:50;31.20;;;11.70;;
75209;SDS011;63796;53.136;14.882;2024-02-21T07:59:57;30.10;;;10.40;;
75209;SDS011;63796;53.136;14.882;2024-02-21T08:03:05;22.20;;;9.20;;
75209;SDS011;63796;53.136;14.882;2024-02-21T08:06:13;29.40;;;13.50;;
75209;SDS011;63796;53.136;14.882;2024-02-21T08:09:21;28.70;;;12.40;;
75209;SDS011;63796;53.136;14.882;2024-02-21T08:12:29;18.20;;;8.40;;
75209;SDS011;63796;53.136;14.882;2024-02-21T08:15:36;32.70;;;14.50;;
75209;SDS011;63796;53.136;14.882;2024-02-21T08:18:44;22.70;;;10.60;;
75209;SDS011;63796;53.136;14.882;2024-02-21T08:21:52;20.50;;;8.70;;
75209;SDS011;63796;53.136;14.882;2024-02-21T08:24:59;22.40;;;8.70;;
75209;SDS011;63796;53.136;14.882;2024-02-21T08:28:09;19.00;;;7.50;;
75209;SDS011;63796;53.136;14.882;2024-02-21T08:31:20;24.90;;;8.60;;
75209;SDS011;63796;53.136;14.882;2024-02-21T08:34:27;20.00;;;7.40;;
75209;SDS011;63796;53.136;14.882;2024-02-21T08:37:35;27.60;;;8.40;;
75209;SDS011;63796;53.136;14.882;2024-02-21T08:40:44;18.10;;;9.10;;
75209;SDS011;63796;53.136;14.882;2024-02-21T08:43:12;25.90;;;9.80;;
75209;SDS011;63796;53.136;14.882;2024-02-21T08:46:20;27.60;;;8.30;;
75209;SDS011;63796;53.136;14.882;2024-02-21T08:49:27;28.70;;;9.90;;
75209;SDS011;63796;53.136;14.882;2024-02-21T08:52:35;23.40;;;8.60;;
75209;SDS011;63796;53.136;14.882;2024-02-21T08:55:43;22.40;;;10.00;;
75209;SDS011;63796;53.136;14.882;2024-02-21T08:58:52;24.80;;;9.30;;
75209;SDS011;63796;53.136;14.882;2024-02-21T09:02:02;23.80;;;8.80;;
75209;SDS011;63796;53.136;14.882;2024-02-21T09:05:10;26.50;;;9.20;;
75209;SDS011;63796;53.136;14.882;2024-02-21T09:08:18;22.90;;;8.50;;
75209;SDS011;63796;53.136;14.882;2024-02-21T09:11:26;19.50;;;6.80;;
75209;SDS011;63796;53.136;14.882;2024-02-21T09:14:36;21.00;;;7.70;;
75209;SDS011;63796;53.136;14.882;2024-02-21T09:17:44;17.00;;;7.80;;
75209;SDS011;63796;53.136;14.882;2024-02-21T09:20:52;20.70;;;9.00;;
75209;SDS011;63796;53.136;14.882;2024-02-21T09:23:59;18.00;;;8.20;;
75209;SDS011;63796;53.136;14.882;2024-02-21T09:27:06;18.10;;;8.40;;
75209;SDS011;63796;53.136;14.882;2024-02-21T09:30:14;19.30;;;8.80;;
75209;SDS011;63796;53.136;14.882;2024-02-21T09:33:21;27.60;;;9.20;;
75209;SDS011;63796;53.136;14.882;2024-02-21T09:36:29;25.50;;;8.90;;
75209;SDS011;63796;53.136;14.882;2024-02-21T09:39:37;17.70;;;7.10;;
75209;SDS011;63796;53.136;14.882;2024-02-21T09:42:46;24.50;;;9.50;;
75209;SDS011;63796;53.136;14.882;2024-02-21T09:45:56;25.90;;;11.10;;
75209;SDS011;63796;53.136;14.882;2024-02-21T09:52:37;23.90;;;13.00;;
75209;SDS011;63796;53.136;14.882;2024-02-21T09:55:45;25.30;;;11.40;;
75209;SDS011;63796;53.136;14.882;2024-02-21T09:58:53;22.70;;;12.10;;
75209;SDS011;63796;53.136;14.882;2024-02-21T10:02:00;20.70;;;8.70;;
75209;SDS011;63796;53.136;14.882;2024-02-21T10:05:10;21.30;;;8.60;;
75209;SDS011;63796;53.136;14.882;2024-02-21T10:08:19;18.20;;;8.00;;
75209;SDS011;63796;53.136;14.882;2024-02-21T10:11:27;25.20;;;9.40;;
75209;SDS011;63796;53.136;14.882;2024-02-21T10:14:36;18.90;;;9.00;;
75209;SDS011;63796;53.136;14.882;2024-02-21T10:17:44;24.10;;;9.10;;
75209;SDS011;63796;53.136;14.882;2024-02-21T10:21:03;29.20;;;10.50;;
75209;SDS011;63796;53.136;14.882;2024-02-21T10:24:11;24.80;;;9.80;;
75209;SDS011;63796;53.136;14.882;2024-02-21T10:27:19;23.80;;;9.60;;
75209;SDS011;63796;53.136;14.882;2024-02-21T10:30:26;23.00;;;8.40;;
75209;SDS011;63796;53.136;14.882;2024-02-21T10:33:34;23.50;;;9.20;;
75209;SDS011;63796;53.136;14.882;2024-02-21T10:36:41;26.60;;;10.80;;
75209;SDS011;63796;53.136;14.882;2024-02-21T10:39:50;26.20;;;8.80;;
75209;SDS011;63796;53.136;14.882;2024-02-21T10:42:59;19.30;;;9.10;;
75209;SDS011;63796;53.136;14.882;2024-02-21T10:46:08;28.70;;;11.50;;
75209;SDS011;63796;53.136;14.882;2024-02-21T10:49:30;22.60;;;9.70;;
75209;SDS011;63796;53.136;14.882;2024-02-21T10:52:48;15.10;;;7.30;;
75209;SDS011;63796;53.136;14.882;2024-02-21T10:56:11;18.90;;;8.30;;
75209;SDS011;63796;53.136;14.882;2024-02-21T10:59:21;16.20;;;7.20;;
75209;SDS011;63796;53.136;14.882;2024-02-21T11:02:29;16.80;;;7.90;;
75209;SDS011;63796;53.136;14.882;2024-02-21T11:05:39;14.60;;;5.80;;
75209;SDS011;63796;53.136;14.882;2024-02-21T11:09:06;16.50;;;6.70;;
75209;SDS011;63796;53.136;14.882;2024-02-21T11:12:20;40.40;;;13.70;;
75209;SDS011;63796;53.136;14.882;2024-02-21T11:15:27;17.10;;;8.60;;
75209;SDS011;63796;53.136;14.882;2024-02-21T11:18:37;29.70;;;13.90;;
75209;SDS011;63796;53.136;14.882;2024-02-21T11:21:45;35.40;;;15.20;;
75209;SDS011;63796;53.136;14.882;2024-02-21T11:24:52;22.00;;;9.50;;
75209;SDS011;63796;53.136;14.882;2024-02-21T11:28:03;43.20;;;14.00;;
75209;SDS011;63796;53.136;14.882;2024-02-21T11:31:13;32.30;;;11.00;;
75209;SDS011;63796;53.136;14.882;2024-02-21T11:34:21;33.20;;;11.20;;
75209;SDS011;63796;53.136;14.882;2024-02-21T11:37:31;40.20;;;14.10;;
75209;SDS011;63796;53.136;14.882;2024-02-21T11:40:45;43.80;;;15.20;;
75209;SDS011;63796;53.136;14.882;2024-02-21T11:43:53;20.90;;;9.00;;
75209;SDS011;63796;53.136;14.882;2024-02-21T11:47:00;21.10;;;10.00;;
75209;SDS011;63796;53.136;14.882;2024-02-21T11:50:11;53.10;;;16.00;;
75209;SDS011;63796;53.136;14.882;2024-02-21T11:52:42;18.00;;;8.40;;
75209;SDS011;63796;53.136;14.882;2024-02-21T11:55:09;12.60;;;5.60;;
75209;SDS011;63796;53.136;14.882;2024-02-21T11:57:37;14.40;;;5.50;;
75209;SDS011;63796;53.136;14.882;2024-02-21T12:00:14;20.70;;;9.60;;
75209;SDS011;63796;53.136;14.882;2024-02-21T12:02:43;21.70;;;10.10;;
75209;SDS011;63796;53.136;14.882;2024-02-21T12:05:15;28.20;;;13.80;;
75209;SDS011;63796;53.136;14.882;2024-02-21T12:07:45;14.10;;;6.90;;
75209;SDS011;63796;53.136;14.882;2024-02-21T12:10:13;43.50;;;19.10;;
75209;SDS011;63796;53.136;14.882;2024-02-21T12:12:41;94.80;;;34.80;;
75209;SDS011;63796;53.136;14.882;2024-02-21T12:15:10;15.80;;;7.50;;
75209;SDS011;63796;53.136;14.882;2024-02-21T12:17:39;24.60;;;14.20;;
75209;SDS011;63796;53.136;14.882;2024-02-21T12:20:08;13.20;;;6.10;;
75209;SDS011;63796;53.136;14.882;2024-02-21T12:22:41;13.90;;;7.00;;
75209;SDS011;63796;53.136;14.882;2024-02-21T12:25:19;12.40;;;6.20;;
75209;SDS011;63796;53.136;14.882;2024-02-21T12:27:47;17.10;;;6.70;;
75209;SDS011;63796;53.136;14.882;2024-02-21T12:30:16;9.40;;;4.70;;
75209;SDS011;63796;53.136;14.882;2024-02-21T12:32:44;11.90;;;5.60;;
75209;SDS011;63796;53.136;14.882;2024-02-21T12:35:11;7.70;;;4.00;;
75209;SDS011;63796;53.136;14.882;2024-02-21T12:37:39;12.40;;;7.20;;
75209;SDS011;63796;53.136;14.882;2024-02-21T12:40:08;8.90;;;4.80;;
75209;SDS011;63796;53.136;14.882;2024-02-21T12:42:40;22.60;;;8.50;;
75209;SDS011;63796;53.136;14.882;2024-02-21T12:45:10;17.60;;;7.90;;
75209;SDS011;63796;53.136;14.882;2024-02-21T12:47:38;16.60;;;7.90;;
75209;SDS011;63796;53.136;14.882;2024-02-21T12:50:50;13.50;;;6.70;;
75209;SDS011;63796;53.136;14.882;2024-02-21T12:53:58;12.90;;;7.00;;
75209;SDS011;63796;53.136;14.882;2024-02-21T12:57:08;10.20;;;5.60;;
75209;SDS011;63796;53.136;14.882;2024-02-21T13:00:16;12.30;;;6.80;;
75209;SDS011;63796;53.136;14.882;2024-02-21T13:03:24;9.50;;;5.60;;
75209;SDS011;63796;53.136;14.882;2024-02-21T13:06:31;8.40;;;4.70;;
75209;SDS011;63796;53.136;14.882;2024-02-21T13:09:39;6.40;;;3.90;;
75209;SDS011;63796;53.136;14.882;2024-02-21T13:12:07;7.80;;;3.90;;
75209;SDS011;63796;53.136;14.882;2024-02-21T13:14:37;6.90;;;4.40;;
75209;SDS011;63796;53.136;14.882;2024-02-21T13:17:06;9.10;;;5.60;;
75209;SDS011;63796;53.136;14.882;2024-02-21T13:19:34;8.90;;;5.20;;
75209;SDS011;63796;53.136;14.882;2024-02-21T13:22:02;11.00;;;6.40;;
75209;SDS011;63796;53.136;14.882;2024-02-21T13:24:30;9.30;;;5.40;;
75209;SDS011;63796;53.136;14.882;2024-02-21T13:26:58;9.30;;;4.90;;
75209;SDS011;63796;53.136;14.882;2024-02-21T13:29:26;8.90;;;5.10;;
75209;SDS011;63796;53.136;14.882;2024-02-21T13:31:54;8.10;;;5.20;;
75209;SDS011;63796;53.136;14.882;2024-02-21T13:34:21;11.20;;;5.20;;
75209;SDS011;63796;53.136;14.882;2024-02-21T13:37:31;14.00;;;7.90;;
75209;SDS011;63796;53.136;14.882;2024-02-21T13:40:39;13.40;;;6.50;;
75209;SDS011;63796;53.136;14.882;2024-02-21T13:43:47;26.60;;;13.20;;
75209;SDS011;63796;53.136;14.882;2024-02-21T13:46:55;11.10;;;6.10;;
75209;SDS011;63796;53.136;14.882;2024-02-21T13:50:05;27.00;;;12.00;;
75209;SDS011;63796;53.136;14.882;2024-02-21T13:53:13;36.10;;;17.00;;
75209;SDS011;63796;53.136;14.882;2024-02-21T13:56:21;42.10;;;16.90;;
75209;SDS011;63796;53.136;14.882;2024-02-21T13:59:28;32.70;;;10.50;;
75209;SDS011;63796;53.136;14.882;2024-02-21T14:02:36;46.30;;;13.80;;
75209;SDS011;63796;53.136;14.882;2024-02-21T14:05:43;31.10;;;11.20;;
75209;SDS011;63796;53.136;14.882;2024-02-21T14:08:51;51.00;;;16.90;;
75209;SDS011;63796;53.136;14.882;2024-02-21T14:11:59;22.90;;;8.70;;
75209;SDS011;63796;53.136;14.882;2024-02-21T14:15:07;87.70;;;22.10;;
75209;SDS011;63796;53.136;14.882;2024-02-21T14:18:14;75.20;;;19.10;;
75209;SDS011;63796;53.136;14.882;2024-02-21T14:21:23;82.70;;;18.20;;
75209;SDS011;63796;53.136;14.882;2024-02-21T14:24:30;81.80;;;17.40;;
75209;SDS011;63796;53.136;14.882;2024-02-21T14:27:37;48.40;;;12.80;;
75209;SDS011;63796;53.136;14.882;2024-02-21T14:30:45;66.40;;;16.90;;
75209;SDS011;63796;53.136;14.882;2024-02-21T14:33:52;51.40;;;13.90;;
75209;SDS011;63796;53.136;14.882;2024-02-21T14:36:59;29.40;;;8.80;;
75209;SDS011;63796;53.136;14.882;2024-02-21T14:40:07;32.00;;;11.10;;
75209;SDS011;63796;53.136;14.882;2024-02-21T14:43:15;31.00;;;10.30;;
75209;SDS011;63796;53.136;14.882;2024-02-21T14:46:22;23.20;;;8.50;;
75209;SDS011;63796;53.136;14.882;2024-02-21T14:49:30;16.50;;;6.80;;
75209;SDS011;63796;53.136;14.882;2024-02-21T14:52:37;18.40;;;6.60;;
75209;SDS011;63796;53.136;14.882;2024-02-21T14:55:45;22.70;;;7.50;;
75209;SDS011;63796;53.136;14.882;2024-02-21T14:58:53;20.10;;;8.50;;
75209;SDS011;63796;53.136;14.882;2024-02-21T15:02:11;16.60;;;6.70;;
75209;SDS011;63796;53.136;14.882;2024-02-21T15:05:19;17.10;;;8.00;;
75209;SDS011;63796;53.136;14.882;2024-02-21T15:08:26;14.40;;;6.50;;
75209;SDS011;63796;53.136;14.882;2024-02-21T15:11:33;16.00;;;7.70;;
75209;SDS011;63796;53.136;14.882;2024-02-21T15:14:24;12.10;;;7.70;;
75209;SDS011;63796;53.136;14.882;2024-02-21T15:17:31;12.60;;;6.40;;
75209;SDS011;63796;53.136;14.882;2024-02-21T15:20:39;24.10;;;9.60;;
75209;SDS011;63796;53.136;14.882;2024-02-21T15:23:46;21.60;;;9.00;;
75209;SDS011;63796;53.136;14.882;2024-02-21T15:26:54;27.30;;;11.20;;
75209;SDS011;63796;53.136;14.882;2024-02-21T15:30:03;28.30;;;13.60;;
75209;SDS011;63796;53.136;14.882;2024-02-21T15:33:10;31.30;;;12.70;;
75209;SDS011;63796;53.136;14.882;2024-02-21T15:36:20;33.30;;;16.30;;
75209;SDS011;63796;53.136;14.882;2024-02-21T15:39:27;50.00;;;23.30;;
75209;SDS011;63796;53.136;14.882;2024-02-21T15:42:37;33.30;;;17.10;;
75209;SDS011;63796;53.136;14.882;2024-02-21T15:45:44;44.20;;;21.10;;
75209;SDS011;63796;53.136;14.882;2024-02-21T15:48:52;44.10;;;22.30;;
75209;SDS011;63796;53.136;14.882;2024-02-21T15:51:59;24.00;;;12.30;;
75209;SDS011;63796;53.136;14.882;2024-02-21T15:55:09;7.80;;;4.20;;
75209;SDS011;63796;53.136;14.882;2024-02-21T15:58:16;20.10;;;12.20;;
75209;SDS011;63796;53.136;14.882;2024-02-21T16:01:24;19.20;;;10.80;;
75209;SDS011;63796;53.136;14.882;2024-02-21T16:04:32;11.70;;;7.70;;
75209;SDS011;63796;53.136;14.882;2024-02-21T16:07:40;35.20;;;8.30;;
75209;SDS011;63796;53.136;14.882;2024-02-21T16:10:47;11.50;;;5.40;;
75209;SDS011;63796;53.136;14.882;2024-02-21T16:13:55;24.40;;;13.90;;
75209;SDS011;63796;53.136;14.882;2024-02-21T16:17:03;12.10;;;5.80;;
75209;SDS011;63796;53.136;14.882;2024-02-21T16:20:11;13.70;;;7.00;;
75209;SDS011;63796;53.136;14.882;2024-02-21T16:23:19;30.00;;;10.70;;
75209;SDS011;63796;53.136;14.882;2024-02-21T16:26:26;44.10;;;17.10;;
75209;SDS011;63796;53.136;14.882;2024-02-21T16:29:34;58.30;;;23.60;;
75209;SDS011;63796;53.136;14.882;2024-02-21T16:32:42;33.10;;;14.00;;
75209;SDS011;63796;53.136;14.882;2024-02-21T16:48:54;48.70;;;24.70;;
75209;SDS011;63796;53.136;14.882;2024-02-21T16:51:22;58.30;;;26.10;;
75209;SDS011;63796;53.136;14.882;2024-02-21T16:53:49;65.90;;;29.10;;
75209;SDS011;63796;53.136;14.882;2024-02-21T16:56:17;48.30;;;22.50;;
75209;SDS011;63796;53.136;14.882;2024-02-21T16:58:46;28.70;;;15.90;;
75209;SDS011;63796;53.136;14.882;2024-02-21T17:01:13;42.70;;;21.80;;
75209;SDS011;63796;53.136;14.882;2024-02-21T17:03:41;54.30;;;31.30;;
75209;SDS011;63796;53.136;14.882;2024-02-21T17:06:09;17.60;;;8.80;;
75209;SDS011;63796;53.136;14.882;2024-02-21T17:08:45;7.20;;;3.60;;
75209;SDS011;63796;53.136;14.882;2024-02-21T17:11:14;5.40;;;3.10;;
75209;SDS011;63796;53.136;14.882;2024-02-21T17:13:42;5.60;;;2.90;;
75209;SDS011;63796;53.136;14.882;2024-02-21T17:16:10;7.00;;;3.20;;
75209;SDS011;63796;53.136;14.882;2024-02-21T17:18:39;6.90;;;2.90;;
75209;SDS011;63796;53.136;14.882;2024-02-21T17:21:07;9.30;;;3.00;;
75209;SDS011;63796;53.136;14.882;2024-02-21T17:23:35;7.10;;;3.40;;
75209;SDS011;63796;53.136;14.882;2024-02-21T17:26:03;6.80;;;3.30;;
75209;SDS011;63796;53.136;14.882;2024-02-21T17:28:31;7.70;;;3.40;;
75209;SDS011;63796;53.136;14.882;2024-02-21T17:30:59;10.80;;;3.50;;
75209;SDS011;63796;53.136;14.882;2024-02-21T17:33:27;9.60;;;3.20;;
75209;SDS011;63796;53.136;14.882;2024-02-21T17:35:54;4.20;;;2.30;;
75209;SDS011;63796;53.136;14.882;2024-02-21T17:38:22;4.90;;;2.40;;
75209;SDS011;63796;53.136;14.882;2024-02-21T17:40:50;7.30;;;2.70;;
75209;SDS011;63796;53.136;14.882;2024-02-21T17:43:18;7.20;;;2.40;;
75209;SDS011;63796;53.136;14.882;2024-02-21T17:45:48;5.60;;;2.40;;
75209;SDS011;63796;53.136;14.882;2024-02-21T17:48:17;10.10;;;3.20;;
75209;SDS011;63796;53.136;14.882;2024-02-21T17:50:46;4.30;;;2.50;;
75209;SDS011;63796;53.136;14.882;2024-02-21T17:53:16;5.10;;;3.10;;
75209;SDS011;63796;53.136;14.882;2024-02-21T17:55:47;6.30;;;2.80;;